createdAt,value
2023-02-18T00:02:13.680Z,25.390625
2023-02-18T00:12:13.539Z,25.7080078125
2023-02-18T00:22:13.464Z,26.611328125
2023-02-18T00:32:13.478Z,26.3916015625
2023-02-18T00:42:13.369Z,26.1962890625
2023-02-18T00:52:13.266Z,26.806640625
2023-02-18T01:02:13.301Z,27.197265625
2023-02-18T01:12:13.130Z,27.7099609375
2023-02-18T01:22:13.076Z,28.2958984375
2023-02-18T01:32:13.142Z,27.8076171875
2023-02-18T01:42:12.951Z,28.3935546875
2023-02-18T01:52:12.861Z,28.5888671875
2023-02-18T02:02:12.946Z,28.2958984375
2023-02-18T02:12:12.716Z,27.7099609375
2023-02-18T02:22:12.678Z,27.7099609375
2023-02-18T02:32:12.625Z,27.7099609375
2023-02-18T02:42:12.534Z,27.7099609375
2023-02-18T02:52:12.465Z,27.490234375
2023-02-18T03:02:12.402Z,26.904296875
2023-02-18T03:12:12.313Z,26.1962890625
2023-02-18T03:22:12.283Z,25.9033203125
2023-02-18T03:32:12.263Z,25.6103515625
2023-02-18T03:42:12.119Z,25.390625
2023-02-18T03:52:12.042Z,24.1943359375
2023-02-18T04:02:11.981Z,23.095703125
2023-02-18T04:12:11.876Z,22.39990234375
2023-02-18T04:22:11.793Z,22.30224609375
2023-02-18T04:32:11.739Z,22.0947265625
2023-02-18T04:42:11.890Z,21.59423828125
2023-02-18T04:52:11.587Z,21.39892578125
2023-02-18T05:02:11.516Z,20.80078125
2023-02-18T05:12:11.485Z,20.60546875
2023-02-18T05:22:11.403Z,20.49560546875
2023-02-18T05:32:11.321Z,20.20263671875
2023-02-18T05:42:11.257Z,19.8974609375
2023-02-18T05:52:11.155Z,19.49462890625
2023-02-18T06:02:11.102Z,19.20166015625
2023-02-18T06:12:11.085Z,18.701171875
2023-02-18T06:22:10.962Z,18.505859375
2023-02-18T06:32:11.051Z,18.29833984375
2023-02-18T06:42:10.836Z,17.8955078125
2023-02-18T06:52:10.793Z,17.5048828125
2023-02-18T07:02:10.720Z,17.29736328125
2023-02-18T07:12:10.634Z,17.00439453125
2023-02-18T07:22:10.609Z,16.69921875
2023-02-18T07:32:10.516Z,16.50390625
2023-02-18T07:42:10.492Z,16.10107421875
2023-02-18T07:52:10.373Z,16.00341796875
2023-02-18T08:02:10.238Z,15.7958984375
2023-02-18T08:12:10.160Z,15.7958984375
2023-02-18T08:22:10.155Z,15.6982421875
2023-02-18T08:32:10.098Z,15.6005859375
2023-02-18T08:42:09.982Z,15.5029296875
2023-02-18T08:52:10.017Z,15.29541015625
2023-02-18T09:02:09.855Z,15.4052734375
2023-02-18T09:12:09.784Z,15.19775390625
2023-02-18T09:22:09.704Z,15.19775390625
2023-02-18T09:32:09.781Z,15.29541015625
2023-02-18T09:42:09.555Z,15.10009765625
2023-02-18T09:52:09.528Z,15.10009765625
2023-02-18T10:02:09.431Z,15.10009765625
2023-02-18T10:12:09.337Z,14.794921875
2023-02-18T10:22:09.549Z,14.697265625
2023-02-18T10:32:10.161Z,14.599609375
2023-02-18T10:42:09.185Z,14.599609375
2023-02-18T10:52:09.028Z,14.501953125
2023-02-18T11:02:09.035Z,14.697265625
2023-02-18T11:12:09.306Z,15.19775390625
2023-02-18T11:22:08.855Z,15.19775390625
2023-02-18T11:32:08.923Z,15.19775390625
2023-02-18T11:42:08.947Z,15.29541015625
2023-02-18T11:52:09.242Z,15.19775390625
2023-02-18T12:02:08.633Z,15.19775390625
2023-02-18T12:12:08.462Z,15.19775390625
2023-02-18T12:22:08.393Z,15.10009765625
2023-02-18T12:32:08.339Z,14.90478515625
2023-02-18T12:42:08.784Z,15.00244140625
2023-02-18T12:52:08.213Z,15.19775390625
2023-02-18T13:02:08.226Z,15.10009765625
2023-02-18T13:12:08.126Z,15.00244140625
2023-02-18T13:22:08.063Z,15.00244140625
2023-02-18T13:32:08.074Z,15.00244140625
2023-02-18T13:42:07.829Z,15.10009765625
2023-02-18T13:52:07.775Z,15.10009765625
2023-02-18T14:02:07.752Z,15.29541015625
2023-02-18T14:12:07.632Z,15.5029296875
2023-02-18T14:22:07.554Z,15.6005859375
2023-02-18T14:32:07.601Z,16.00341796875
2023-02-18T14:42:07.398Z,15.6982421875
2023-02-18T14:52:07.323Z,15.6005859375
2023-02-18T15:02:07.348Z,15.90576171875
2023-02-18T15:12:07.240Z,15.90576171875
2023-02-18T15:22:07.162Z,16.39404296875
2023-02-18T15:32:07.224Z,16.39404296875
2023-02-18T15:42:07.025Z,16.00341796875
2023-02-18T15:52:06.973Z,15.90576171875
2023-02-18T16:02:06.936Z,16.19873046875
2023-02-18T16:12:06.851Z,16.19873046875
2023-02-18T16:22:06.830Z,16.50390625
2023-02-18T16:32:06.792Z,16.50390625
2023-02-18T16:42:06.628Z,16.29638671875
2023-02-18T16:52:06.542Z,16.19873046875
2023-02-18T17:02:06.509Z,16.39404296875
2023-02-18T17:12:06.391Z,16.29638671875
2023-02-18T17:22:06.316Z,16.39404296875
2023-02-18T17:32:06.411Z,16.39404296875
2023-02-18T17:42:06.199Z,16.6015625
2023-02-18T17:52:06.171Z,16.29638671875
2023-02-18T18:02:06.129Z,16.29638671875
2023-02-18T18:12:05.934Z,16.29638671875
2023-02-18T18:22:05.865Z,16.39404296875
2023-02-18T18:32:05.872Z,16.29638671875
2023-02-18T18:42:05.748Z,16.39404296875
2023-02-18T18:52:05.773Z,16.6015625
2023-02-18T19:02:05.622Z,16.50390625
2023-02-18T19:12:05.532Z,16.50390625
2023-02-18T19:22:05.445Z,16.796875
2023-02-18T19:32:05.463Z,17.10205078125
2023-02-18T19:42:05.342Z,17.39501953125
2023-02-18T19:52:05.273Z,17.19970703125
2023-02-18T20:02:05.292Z,17.7978515625
2023-02-18T20:12:05.105Z,17.7978515625
2023-02-18T20:22:05.065Z,17.7001953125
2023-02-18T20:32:05.104Z,17.7978515625
2023-02-18T20:42:15.543Z,18.00537109375
2023-02-18T20:52:04.833Z,18.00537109375
2023-02-18T21:02:04.853Z,18.20068359375
2023-02-18T21:12:04.722Z,18.39599609375
2023-02-18T21:22:04.745Z,18.39599609375
2023-02-18T21:32:04.634Z,18.701171875
2023-02-18T21:42:04.535Z,18.798828125
2023-02-18T21:52:04.425Z,19.20166015625
2023-02-18T22:02:04.374Z,19.6044921875
2023-02-18T22:12:04.284Z,20.20263671875
2023-02-18T22:22:04.419Z,20.60546875
2023-02-18T22:32:04.311Z,20.99609375
2023-02-18T22:42:04.058Z,21.59423828125
2023-02-18T22:52:03.964Z,21.8994140625
2023-02-18T23:02:04.015Z,22.39990234375
2023-02-18T23:12:03.833Z,21.59423828125
2023-02-18T23:22:03.750Z,21.7041015625
2023-02-18T23:32:03.745Z,22.49755859375
2023-02-18T23:42:03.632Z,22.39990234375
2023-02-18T23:52:03.528Z,23.49853515625
